createdAt,value
2022-12-08T00:00:54.757Z,99.90
2022-12-08T00:01:57.223Z,99.90
2022-12-08T00:03:00.717Z,99.90
2022-12-08T00:04:04.904Z,99.90
2022-12-08T00:05:28.342Z,99.90
2022-12-08T00:06:51.083Z,99.90
2022-12-08T00:08:11.570Z,99.90
2022-12-08T00:09:23.918Z,99.90
2022-12-08T00:10:48.379Z,99.90
2022-12-08T00:11:49.263Z,99.90
2022-12-08T00:12:51.290Z,99.90
2022-12-08T00:13:54.300Z,99.90
2022-12-08T00:14:56.313Z,99.90
2022-12-08T00:16:01.274Z,99.90
2022-12-08T00:17:05.542Z,99.90
2022-12-08T00:18:07.659Z,99.90
2022-12-08T00:19:10.718Z,99.90
2022-12-08T00:20:14.186Z,99.90
2022-12-08T00:21:17.396Z,99.90
2022-12-08T00:22:20.504Z,99.90
2022-12-08T00:23:22.544Z,99.90
2022-12-08T00:24:30.368Z,99.90
2022-12-08T00:25:35.262Z,99.90
2022-12-08T00:26:38.697Z,99.90
2022-12-08T00:27:40.698Z,99.90
2022-12-08T00:28:43.703Z,99.90
2022-12-08T00:29:45.873Z,99.90
2022-12-08T00:30:48.945Z,99.90
2022-12-08T00:31:51.056Z,99.90
2022-12-08T00:32:54.125Z,99.90
2022-12-08T00:33:56.427Z,99.90
2022-12-08T00:34:59.421Z,99.90
2022-12-08T00:36:07.069Z,99.90
2022-12-08T00:37:10.095Z,99.90
2022-12-08T00:38:12.193Z,99.90
2022-12-08T00:39:16.611Z,99.90
2022-12-08T00:40:18.771Z,99.90
2022-12-08T00:41:44.245Z,99.90
2022-12-08T00:42:46.284Z,99.90
2022-12-08T00:43:49.309Z,99.90
2022-12-08T00:44:51.425Z,99.90
2022-12-08T00:45:54.498Z,99.90
2022-12-08T00:46:56.715Z,99.90
2022-12-08T00:47:59.814Z,99.90
2022-12-08T00:49:01.925Z,99.90
2022-12-08T00:50:05.778Z,99.90
2022-12-08T00:51:09.377Z,99.90
2022-12-08T00:52:12.921Z,99.90
2022-12-08T00:53:15.023Z,99.90
2022-12-08T00:54:18.516Z,99.90
2022-12-08T00:55:20.553Z,99.90
2022-12-08T00:56:23.819Z,99.90
2022-12-08T00:57:26.931Z,99.90
2022-12-08T00:58:28.966Z,99.90
2022-12-08T00:59:31.955Z,99.90
2022-12-08T01:00:33.976Z,99.90
2022-12-08T01:01:37.281Z,99.90
2022-12-08T01:02:40.394Z,99.90
2022-12-08T01:03:43.351Z,99.90
2022-12-08T01:04:46.532Z,99.90
2022-12-08T01:05:48.536Z,99.90
2022-12-08T01:06:52.918Z,99.90
2022-12-08T01:07:55.032Z,99.90
2022-12-08T01:08:58.186Z,99.90
2022-12-08T01:10:00.231Z,99.90
2022-12-08T01:11:04.689Z,99.90
2022-12-08T01:12:08.342Z,99.90
2022-12-08T01:13:11.338Z,99.90
2022-12-08T01:14:14.727Z,99.90
2022-12-08T01:15:16.762Z,99.90
2022-12-08T01:16:24.122Z,99.90
2022-12-08T01:17:26.193Z,99.90
2022-12-08T01:18:30.087Z,99.90
2022-12-08T01:19:32.193Z,99.90
2022-12-08T01:20:35.280Z,99.90
2022-12-08T01:21:37.471Z,99.90
2022-12-08T01:22:41.997Z,99.90
2022-12-08T01:23:44.450Z,99.90
2022-12-08T01:24:47.603Z,99.90
2022-12-08T01:25:49.593Z,99.90
2022-12-08T01:26:52.965Z,99.90
2022-12-08T01:27:54.996Z,99.90
2022-12-08T01:28:58.035Z,99.90
2022-12-08T01:30:01.186Z,99.90
2022-12-08T01:31:03.474Z,99.90
2022-12-08T01:32:06.684Z,99.90
2022-12-08T01:33:08.681Z,99.90
2022-12-08T01:34:12.900Z,99.90
2022-12-08T01:35:15.019Z,99.90
2022-12-08T01:36:21.520Z,99.90
2022-12-08T01:37:24.570Z,99.90
2022-12-08T01:38:27.961Z,99.90
2022-12-08T01:39:30.955Z,99.90
2022-12-08T01:40:33.030Z,99.90
2022-12-08T01:41:37.954Z,99.90
2022-12-08T01:42:40.986Z,99.90
2022-12-08T01:43:59.371Z,99.90
2022-12-08T01:45:04.720Z,99.90
2022-12-08T01:46:06.959Z,99.90
2022-12-08T01:47:10.501Z,99.90
2022-12-08T01:48:19.461Z,99.90
2022-12-08T01:49:27.731Z,99.90
2022-12-08T01:50:30.728Z,99.90
2022-12-08T01:51:41.641Z,99.90
2022-12-08T01:52:48.960Z,99.90
2022-12-08T01:53:52.750Z,99.90
2022-12-08T01:54:59.116Z,99.90
2022-12-08T01:56:06.955Z,99.90
2022-12-08T01:57:15.121Z,99.90
2022-12-08T01:58:21.161Z,99.90
2022-12-08T01:59:26.080Z,99.90
2022-12-08T02:00:28.187Z,99.90
2022-12-08T02:01:31.302Z,99.90
2022-12-08T02:02:41.821Z,99.90
2022-12-08T02:03:49.263Z,99.90
2022-12-08T02:04:51.338Z,99.90
2022-12-08T02:05:54.618Z,99.90
2022-12-08T02:06:57.552Z,99.90
2022-12-08T02:08:06.621Z,99.90
2022-12-08T02:09:10.652Z,99.90
2022-12-08T02:10:18.663Z,99.90
2022-12-08T02:11:21.110Z,99.90
2022-12-08T02:12:24.244Z,99.90
2022-12-08T02:13:26.447Z,99.90
2022-12-08T02:14:29.518Z,99.90
2022-12-08T02:15:39.563Z,99.90
2022-12-08T02:16:50.206Z,99.90
2022-12-08T02:18:02.304Z,99.90
2022-12-08T02:19:35.440Z,99.90
2022-12-08T02:20:52.845Z,99.90
2022-12-08T02:22:02.573Z,99.90
2022-12-08T02:23:16.165Z,99.90
2022-12-08T02:24:26.373Z,99.90
2022-12-08T02:25:40.399Z,99.90
2022-12-08T02:27:10.500Z,99.90
2022-12-08T02:28:40.337Z,99.90
2022-12-08T02:30:02.648Z,99.90
2022-12-08T02:31:20.257Z,99.90
2022-12-08T02:33:07.334Z,99.90
2022-12-08T02:34:30.172Z,99.90
2022-12-08T02:35:36.887Z,99.90
2022-12-08T02:36:49.636Z,99.90
2022-12-08T02:38:01.167Z,99.90
2022-12-08T02:39:11.220Z,99.90
2022-12-08T02:40:21.259Z,99.90
2022-12-08T02:41:37.236Z,99.90
2022-12-08T02:42:44.865Z,99.90
2022-12-08T02:43:52.213Z,99.90
2022-12-08T02:44:59.424Z,99.90
2022-12-08T02:46:06.431Z,99.90
2022-12-08T02:47:11.973Z,99.90
2022-12-08T02:48:16.404Z,99.90
2022-12-08T02:49:19.957Z,99.90
2022-12-08T02:50:23.144Z,99.90
2022-12-08T02:51:25.177Z,99.90
2022-12-08T02:52:41.625Z,99.90
2022-12-08T02:53:44.343Z,99.90
2022-12-08T02:54:52.397Z,99.90
2022-12-08T02:56:03.387Z,99.90
2022-12-08T02:57:23.857Z,99.90
2022-12-08T02:58:44.026Z,99.90
2022-12-08T03:00:05.683Z,99.90
2022-12-08T03:01:21.944Z,99.90
2022-12-08T03:02:38.208Z,99.90
2022-12-08T03:03:51.052Z,99.90
2022-12-08T03:05:04.775Z,99.90
2022-12-08T03:06:18.695Z,99.90
2022-12-08T03:07:26.072Z,99.90
2022-12-08T03:08:34.586Z,99.90
2022-12-08T03:09:43.357Z,99.90
2022-12-08T03:10:52.409Z,99.90
2022-12-08T03:12:04.038Z,99.90
2022-12-08T03:13:12.430Z,99.90
2022-12-08T03:14:17.781Z,99.90
2022-12-08T03:15:22.497Z,99.90
2022-12-08T03:16:26.594Z,99.90
2022-12-08T03:17:32.421Z,99.90
2022-12-08T03:18:38.823Z,99.90
2022-12-08T03:19:43.935Z,99.90
2022-12-08T03:20:50.001Z,99.90
2022-12-08T03:21:53.857Z,99.90
2022-12-08T03:22:59.906Z,99.90
2022-12-08T03:24:05.401Z,99.90
2022-12-08T03:25:10.937Z,99.90
2022-12-08T03:26:18.543Z,99.90
2022-12-08T03:27:25.067Z,99.90
2022-12-08T03:28:27.424Z,99.90
2022-12-08T03:29:31.164Z,99.90
2022-12-08T03:30:39.601Z,99.90
2022-12-08T03:31:50.027Z,99.90
2022-12-08T03:32:56.108Z,99.90
2022-12-08T03:34:00.356Z,99.90
2022-12-08T03:35:05.812Z,99.90
2022-12-08T03:36:12.244Z,99.90
2022-12-08T03:37:16.273Z,99.90
2022-12-08T03:38:19.676Z,99.90
2022-12-08T03:39:21.784Z,99.90
2022-12-08T03:40:25.018Z,99.90
2022-12-08T03:41:27.135Z,99.90
2022-12-08T03:42:30.261Z,99.90
2022-12-08T03:43:32.362Z,99.90
2022-12-08T03:44:35.360Z,99.90
2022-12-08T03:45:37.440Z,99.90
2022-12-08T03:46:40.692Z,99.90
2022-12-08T03:47:42.720Z,99.90
2022-12-08T03:48:45.757Z,99.90
2022-12-08T03:49:48.764Z,99.90
2022-12-08T03:50:50.813Z,99.90
2022-12-08T03:51:55.287Z,99.90
2022-12-08T03:52:57.397Z,99.90
2022-12-08T03:54:00.421Z,99.90
2022-12-08T03:55:03.566Z,99.90
2022-12-08T03:56:13.851Z,99.90
2022-12-08T03:57:16.954Z,99.90
2022-12-08T03:58:18.962Z,99.90
2022-12-08T03:59:22.213Z,99.90
2022-12-08T04:00:24.306Z,99.90
2022-12-08T04:01:27.560Z,99.90
2022-12-08T04:02:29.659Z,99.90
2022-12-08T04:03:32.768Z,99.90
2022-12-08T04:04:35.759Z,99.90
2022-12-08T04:05:37.822Z,99.90
2022-12-08T04:06:40.827Z,99.90
2022-12-08T04:07:44.305Z,99.90
2022-12-08T04:08:47.973Z,99.90
2022-12-08T04:09:49.989Z,99.90
2022-12-08T04:10:53.027Z,99.90
2022-12-08T04:11:56.081Z,99.90
2022-12-08T04:12:58.129Z,99.90
2022-12-08T04:14:01.140Z,99.90
2022-12-08T04:15:03.499Z,99.90
2022-12-08T04:16:07.428Z,99.90
2022-12-08T04:17:10.524Z,99.90
2022-12-08T04:18:12.674Z,99.90
2022-12-08T04:19:15.776Z,99.90
2022-12-08T04:20:17.824Z,99.90
2022-12-08T04:21:21.104Z,99.90
2022-12-08T04:22:23.524Z,99.90
2022-12-08T04:23:28.188Z,99.90
2022-12-08T04:24:30.228Z,99.90
2022-12-08T04:25:33.526Z,99.90
2022-12-08T04:26:35.594Z,99.90
2022-12-08T04:27:38.629Z,99.90
2022-12-08T04:28:40.777Z,99.90
2022-12-08T04:29:43.800Z,99.90
2022-12-08T04:30:48.060Z,99.90
2022-12-08T04:31:51.276Z,99.90
2022-12-08T04:32:53.354Z,99.90
2022-12-08T04:33:56.407Z,99.90
2022-12-08T04:34:58.423Z,99.90
2022-12-08T04:36:01.473Z,99.90
2022-12-08T04:37:03.593Z,99.90
2022-12-08T04:38:06.665Z,99.90
2022-12-08T04:39:11.042Z,99.90
2022-12-08T04:40:14.148Z,99.90
2022-12-08T04:41:17.186Z,99.90
2022-12-08T04:42:19.208Z,99.90
2022-12-08T04:43:22.374Z,99.90
2022-12-08T04:44:25.395Z,99.90
2022-12-08T04:45:27.549Z,99.90
2022-12-08T04:46:30.650Z,99.90
2022-12-08T04:47:32.909Z,99.90
2022-12-08T04:48:37.511Z,99.90
2022-12-08T04:49:39.554Z,99.90
2022-12-08T04:50:44.166Z,99.90
2022-12-08T04:51:46.459Z,99.90
2022-12-08T04:52:49.461Z,99.90
2022-12-08T04:53:51.617Z,99.90
2022-12-08T04:54:56.023Z,99.90
2022-12-08T04:55:59.032Z,99.90
2022-12-08T04:57:01.076Z,99.90
2022-12-08T04:58:04.084Z,99.90
2022-12-08T04:59:07.150Z,99.90
2022-12-08T05:00:10.039Z,99.90
2022-12-08T05:01:13.796Z,99.90
2022-12-08T05:02:15.957Z,99.90
2022-12-08T05:03:23.838Z,99.90
2022-12-08T05:04:30.333Z,99.90
2022-12-08T05:05:33.365Z,99.90
2022-12-08T05:06:36.438Z,99.90
2022-12-08T05:07:38.543Z,99.90
2022-12-08T05:08:41.937Z,99.90
2022-12-08T05:09:44.837Z,99.90
2022-12-08T05:10:49.158Z,99.90
2022-12-08T05:11:51.272Z,99.90
2022-12-08T05:12:54.425Z,99.90
2022-12-08T05:13:57.465Z,99.90
2022-12-08T05:14:59.530Z,99.90
2022-12-08T05:16:07.395Z,99.90
2022-12-08T05:17:09.865Z,99.90
2022-12-08T05:18:13.364Z,99.90
2022-12-08T05:19:16.232Z,99.90
2022-12-08T05:20:19.393Z,99.90
2022-12-08T05:21:21.467Z,99.90
2022-12-08T05:22:24.484Z,99.90
2022-12-08T05:23:26.809Z,99.90
2022-12-08T05:24:29.825Z,99.90
2022-12-08T05:25:31.861Z,99.90
2022-12-08T05:26:36.548Z,99.90
2022-12-08T05:27:38.599Z,99.90
2022-12-08T05:28:43.080Z,99.90
2022-12-08T05:29:45.544Z,99.90
2022-12-08T05:30:48.583Z,99.90
2022-12-08T05:31:50.795Z,99.90
2022-12-08T05:32:53.919Z,99.90
2022-12-08T05:34:00.962Z,99.90
2022-12-08T05:35:06.467Z,99.90
2022-12-08T05:36:09.620Z,99.90
2022-12-08T05:37:12.641Z,99.90
2022-12-08T05:38:15.672Z,99.90
2022-12-08T05:39:17.708Z,99.90
2022-12-08T05:40:20.723Z,99.90
2022-12-08T05:41:23.736Z,99.90
2022-12-08T05:42:27.127Z,99.90
2022-12-08T05:43:30.223Z,99.90
2022-12-08T05:44:32.296Z,99.90
2022-12-08T05:45:35.859Z,99.90
2022-12-08T05:46:38.046Z,99.90
2022-12-08T05:47:41.044Z,99.90
2022-12-08T05:48:43.190Z,99.90
2022-12-08T05:49:46.409Z,99.90
2022-12-08T05:50:50.977Z,99.90
2022-12-08T05:51:54.033Z,99.90
2022-12-08T05:52:56.133Z,99.90
2022-12-08T05:53:59.385Z,99.90
2022-12-08T05:55:02.332Z,99.90
2022-12-08T05:56:05.892Z,99.90
2022-12-08T05:57:08.155Z,99.90
2022-12-08T05:58:15.287Z,99.90
2022-12-08T05:59:17.327Z,99.90
2022-12-08T06:00:21.956Z,99.90
2022-12-08T06:01:27.447Z,99.90
2022-12-08T06:02:30.597Z,99.90
2022-12-08T06:03:33.133Z,99.90
2022-12-08T06:04:36.752Z,99.90
2022-12-08T06:05:40.094Z,99.90
2022-12-08T06:06:43.143Z,99.90
2022-12-08T06:07:45.379Z,99.90
2022-12-08T06:08:48.578Z,99.90
2022-12-08T06:09:50.629Z,99.90
2022-12-08T06:10:53.654Z,99.90
2022-12-08T06:11:55.666Z,99.90
2022-12-08T06:12:58.703Z,99.90
2022-12-08T06:14:03.139Z,99.90
2022-12-08T06:15:06.852Z,99.90
2022-12-08T06:16:08.983Z,99.90
2022-12-08T06:17:12.010Z,99.90
2022-12-08T06:18:14.059Z,99.90
2022-12-08T06:19:17.486Z,99.90
2022-12-08T06:20:19.586Z,99.90
2022-12-08T06:21:22.742Z,99.90
2022-12-08T06:22:24.788Z,99.90
2022-12-08T06:23:27.844Z,99.90
2022-12-08T06:24:31.014Z,99.90
2022-12-08T06:25:33.055Z,99.90
2022-12-08T06:26:36.842Z,99.90
2022-12-08T06:27:38.886Z,99.90
2022-12-08T06:28:42.622Z,99.90
2022-12-08T06:29:47.033Z,99.90
2022-12-08T06:30:49.022Z,99.90
2022-12-08T06:31:52.742Z,99.90
2022-12-08T06:32:54.857Z,99.90
2022-12-08T06:33:57.993Z,99.90
2022-12-08T06:35:00.206Z,99.90
2022-12-08T06:36:03.322Z,99.90
2022-12-08T06:37:05.400Z,99.90
2022-12-08T06:38:08.406Z,99.90
2022-12-08T06:39:11.653Z,99.90
2022-12-08T06:40:14.441Z,99.90
2022-12-08T06:41:18.478Z,99.90
2022-12-08T06:42:50.581Z,99.90
2022-12-08T06:43:56.383Z,99.90
2022-12-08T06:45:00.533Z,99.90
2022-12-08T06:46:05.945Z,99.90
2022-12-08T06:47:08.134Z,99.90
2022-12-08T06:48:11.125Z,99.90
2022-12-08T06:49:13.199Z,99.90
2022-12-08T06:50:16.222Z,99.90
2022-12-08T06:51:22.016Z,99.90
2022-12-08T06:52:24.111Z,99.90
2022-12-08T06:53:27.111Z,99.90
2022-12-08T06:54:30.358Z,99.90
2022-12-08T06:55:57.817Z,99.90
2022-12-08T06:56:55.752Z,99.90
2022-12-08T06:57:57.788Z,99.90
2022-12-08T06:59:00.828Z,99.90
2022-12-08T07:00:05.634Z,99.90
2022-12-08T07:01:10.623Z,99.90
2022-12-08T07:02:12.881Z,99.90
2022-12-08T07:03:15.958Z,99.90
2022-12-08T07:04:18.132Z,99.90
2022-12-08T07:05:21.120Z,99.90
2022-12-08T07:06:25.854Z,99.90
2022-12-08T07:07:27.874Z,99.90
2022-12-08T07:08:31.076Z,99.90
2022-12-08T07:09:34.187Z,99.90
2022-12-08T07:10:36.382Z,99.90
2022-12-08T07:11:39.488Z,99.90
2022-12-08T07:12:41.502Z,99.90
2022-12-08T07:13:44.533Z,99.90
2022-12-08T07:14:46.541Z,99.90
2022-12-08T07:15:50.956Z,99.90
2022-12-08T07:16:54.437Z,99.90
2022-12-08T07:18:00.067Z,99.90
2022-12-08T07:19:03.760Z,99.90
2022-12-08T07:20:07.714Z,99.90
2022-12-08T07:21:13.129Z,99.90
2022-12-08T07:22:16.150Z,99.90
2022-12-08T07:23:19.142Z,99.90
2022-12-08T07:24:21.529Z,99.90
2022-12-08T07:25:24.591Z,99.90
2022-12-08T07:26:27.018Z,99.90
2022-12-08T07:27:30.130Z,99.90
2022-12-08T07:28:32.691Z,99.90
2022-12-08T07:29:35.742Z,99.90
2022-12-08T07:30:39.642Z,99.90
2022-12-08T07:31:44.143Z,99.90
2022-12-08T07:32:46.343Z,99.90
2022-12-08T07:33:50.224Z,99.90
2022-12-08T07:34:53.514Z,99.90
2022-12-08T07:35:56.143Z,99.90
2022-12-08T07:36:59.173Z,99.90
2022-12-08T07:38:02.213Z,99.90
2022-12-08T07:39:04.880Z,99.90
2022-12-08T07:40:09.400Z,99.90
2022-12-08T07:41:16.251Z,99.90
2022-12-08T07:42:18.269Z,99.90
2022-12-08T07:43:23.844Z,99.90
2022-12-08T07:44:26.876Z,99.90
2022-12-08T07:45:31.729Z,99.90
2022-12-08T07:46:35.169Z,99.90
2022-12-08T07:47:38.654Z,99.90
2022-12-08T07:48:41.821Z,99.90
2022-12-08T07:49:44.897Z,99.90
2022-12-08T07:50:47.517Z,99.90
2022-12-08T07:51:50.606Z,99.90
2022-12-08T07:52:53.624Z,99.90
2022-12-08T07:53:56.629Z,99.90
2022-12-08T07:54:58.638Z,99.90
2022-12-08T07:56:01.819Z,99.90
2022-12-08T07:57:06.049Z,99.90
2022-12-08T07:58:08.806Z,99.90
2022-12-08T07:59:11.887Z,99.90
2022-12-08T08:00:16.535Z,99.90
2022-12-08T08:01:21.159Z,99.90
2022-12-08T08:02:25.906Z,99.90
2022-12-08T08:03:29.886Z,99.90
2022-12-08T08:04:33.010Z,99.90
2022-12-08T08:05:36.134Z,99.90
2022-12-08T08:06:39.213Z,99.90
2022-12-08T08:07:43.135Z,99.90
2022-12-08T08:08:46.344Z,99.90
2022-12-08T08:09:48.411Z,99.90
2022-12-08T08:10:51.419Z,99.90
2022-12-08T08:12:22.156Z,99.90
2022-12-08T08:13:16.840Z,99.90
2022-12-08T08:14:21.024Z,99.90
2022-12-08T08:15:24.128Z,99.90
2022-12-08T08:16:26.371Z,99.90
2022-12-08T08:17:29.978Z,99.90
2022-12-08T08:18:34.248Z,99.90
2022-12-08T08:19:37.316Z,99.90
2022-12-08T08:20:40.796Z,99.90
2022-12-08T08:21:45.895Z,99.90
2022-12-08T08:22:49.918Z,99.90
2022-12-08T08:23:52.929Z,99.90
2022-12-08T08:24:55.027Z,99.90
2022-12-08T08:26:00.639Z,99.90
2022-12-08T08:27:04.145Z,99.90
2022-12-08T08:28:07.162Z,99.90
2022-12-08T08:29:10.202Z,99.90
2022-12-08T08:30:19.611Z,99.90
2022-12-08T08:31:26.937Z,99.90
2022-12-08T08:32:32.061Z,99.90
2022-12-08T08:33:36.430Z,99.90
2022-12-08T08:34:38.921Z,99.90
2022-12-08T08:35:42.362Z,99.90
2022-12-08T08:36:44.572Z,99.90
2022-12-08T08:37:49.372Z,99.90
2022-12-08T08:38:53.172Z,99.90
2022-12-08T08:39:56.444Z,99.90
2022-12-08T08:40:59.426Z,99.90
2022-12-08T08:42:02.562Z,99.90
2022-12-08T08:43:05.983Z,99.90
2022-12-08T08:44:09.073Z,99.90
2022-12-08T08:45:11.771Z,99.90
2022-12-08T08:46:14.841Z,99.90
2022-12-08T08:47:16.903Z,99.90
2022-12-08T08:48:19.882Z,99.90
2022-12-08T08:49:24.358Z,99.90
2022-12-08T08:50:32.884Z,99.90
2022-12-08T08:51:39.206Z,99.90
2022-12-08T08:52:41.223Z,99.90
2022-12-08T08:53:44.514Z,99.90
2022-12-08T08:54:46.617Z,99.90
2022-12-08T08:55:50.176Z,99.90
2022-12-08T08:56:53.552Z,99.90
2022-12-08T08:57:55.594Z,99.90
2022-12-08T08:58:58.832Z,99.90
2022-12-08T09:00:02.135Z,99.90
2022-12-08T09:01:05.542Z,99.90
2022-12-08T09:02:11.151Z,99.90
2022-12-08T09:03:14.206Z,99.90
2022-12-08T09:04:17.289Z,99.90
2022-12-08T09:05:21.827Z,99.90
2022-12-08T09:06:25.933Z,99.90
2022-12-08T09:07:28.052Z,99.90
2022-12-08T09:08:31.301Z,99.90
2022-12-08T09:09:34.432Z,99.90
2022-12-08T09:10:36.515Z,99.90
2022-12-08T09:11:39.624Z,99.00
2022-12-08T09:12:42.667Z,98.10
2022-12-08T09:13:48.220Z,96.50
2022-12-08T09:14:50.234Z,95.80
2022-12-08T09:15:53.333Z,95.40
2022-12-08T09:16:56.394Z,94.30
2022-12-08T09:17:58.434Z,94.20
2022-12-08T09:19:02.358Z,93.40
2022-12-08T09:20:05.744Z,92.10
2022-12-08T09:21:15.038Z,91.90
2022-12-08T09:22:18.067Z,90.30
2022-12-08T09:23:20.150Z,88.50
2022-12-08T09:24:23.187Z,87.20
2022-12-08T09:25:25.377Z,84.90
2022-12-08T09:26:29.240Z,84.40
2022-12-08T09:27:31.329Z,84.40
2022-12-08T09:28:35.169Z,83.90
2022-12-08T09:29:37.218Z,82.30
2022-12-08T09:30:40.308Z,84.80
2022-12-08T09:31:42.855Z,83.30
2022-12-08T09:32:46.008Z,81.80
2022-12-08T09:33:51.494Z,78.00
2022-12-08T09:34:54.223Z,77.90
2022-12-08T09:35:57.692Z,77.30
2022-12-08T09:37:02.085Z,77.00
2022-12-08T09:38:04.194Z,75.00
2022-12-08T09:39:07.613Z,73.80
2022-12-08T09:40:16.458Z,72.70
2022-12-08T09:41:29.327Z,72.60
2022-12-08T09:42:42.539Z,71.10
2022-12-08T09:44:00.883Z,70.40
2022-12-08T09:45:07.186Z,70.80
2022-12-08T09:46:11.745Z,70.70
2022-12-08T09:47:19.867Z,70.80
2022-12-08T09:48:28.577Z,70.00
2022-12-08T09:49:37.804Z,74.20
2022-12-08T09:50:46.508Z,76.10
2022-12-08T09:51:48.582Z,77.00
2022-12-08T09:53:01.393Z,77.20
2022-12-08T09:54:08.674Z,77.90
2022-12-08T09:55:20.108Z,79.90
2022-12-08T09:56:25.211Z,80.70
2022-12-08T09:57:30.288Z,80.90
2022-12-08T09:58:44.258Z,80.70
2022-12-08T09:59:53.731Z,80.10
2022-12-08T10:00:56.095Z,79.10
2022-12-08T10:01:59.292Z,80.90
2022-12-08T10:03:02.387Z,82.30
2022-12-08T10:04:24.997Z,82.10
2022-12-08T10:05:28.970Z,82.90
2022-12-08T10:06:36.958Z,83.60
2022-12-08T10:07:46.302Z,83.50
2022-12-08T10:09:03.662Z,84.70
2022-12-08T10:10:15.086Z,84.30
2022-12-08T10:11:25.335Z,86.00
2022-12-08T10:12:35.596Z,87.70
2022-12-08T10:13:46.305Z,88.00
2022-12-08T10:14:57.864Z,89.10
2022-12-08T10:16:19.136Z,89.70
2022-12-08T10:17:27.646Z,90.80
2022-12-08T10:18:32.255Z,92.10
2022-12-08T10:19:36.127Z,91.90
2022-12-08T10:20:41.945Z,92.20
2022-12-08T10:21:45.211Z,92.40
2022-12-08T10:22:51.949Z,92.30
2022-12-08T10:24:01.000Z,93.10
2022-12-08T10:25:11.192Z,93.50
2022-12-08T10:26:15.149Z,93.50
2022-12-08T10:27:18.159Z,93.80
2022-12-08T10:28:21.269Z,93.10
2022-12-08T10:29:24.277Z,92.00
2022-12-08T10:30:26.546Z,92.50
2022-12-08T10:31:31.850Z,93.00
2022-12-08T10:32:36.396Z,92.60
2022-12-08T10:33:38.409Z,92.80
2022-12-08T10:34:59.773Z,94.00
2022-12-08T10:36:03.201Z,94.20
2022-12-08T10:37:10.897Z,94.50
2022-12-08T10:38:22.177Z,94.20
2022-12-08T10:39:33.460Z,95.60
2022-12-08T10:40:43.840Z,96.70
2022-12-08T10:41:48.507Z,96.40
2022-12-08T10:42:54.051Z,97.00
2022-12-08T10:44:02.134Z,98.30
2022-12-08T10:45:21.326Z,98.20
2022-12-08T10:46:26.766Z,99.50
2022-12-08T10:47:30.439Z,99.10
2022-12-08T10:48:34.816Z,99.40
2022-12-08T10:49:38.674Z,99.90
2022-12-08T10:50:43.749Z,98.80
2022-12-08T10:51:46.777Z,99.30
2022-12-08T10:52:55.964Z,99.90
2022-12-08T10:53:59.318Z,99.90
2022-12-08T10:55:02.800Z,98.90
2022-12-08T10:56:16.488Z,99.00
2022-12-08T10:57:23.541Z,98.50
2022-12-08T10:58:33.735Z,99.10
2022-12-08T10:59:36.767Z,98.70
2022-12-08T11:00:40.926Z,97.40
2022-12-08T11:01:47.780Z,97.50
2022-12-08T11:02:58.994Z,98.40
2022-12-08T11:04:04.529Z,97.10
2022-12-08T11:05:08.251Z,96.70
2022-12-08T11:06:15.144Z,97.70
2022-12-08T11:07:23.634Z,97.00
2022-12-08T11:08:27.635Z,97.20
2022-12-08T11:09:40.857Z,97.60
2022-12-08T11:10:46.714Z,98.90
2022-12-08T11:11:51.501Z,99.40
2022-12-08T11:12:55.211Z,99.90
2022-12-08T11:13:58.460Z,99.90
2022-12-08T11:15:03.588Z,99.90
2022-12-08T11:16:07.174Z,99.90
2022-12-08T11:17:13.866Z,99.90
2022-12-08T11:18:27.148Z,99.90
2022-12-08T11:19:30.208Z,99.80
2022-12-08T11:20:40.250Z,99.90
2022-12-08T11:21:43.613Z,99.90
2022-12-08T11:22:50.993Z,99.90
2022-12-08T11:23:53.965Z,99.90
2022-12-08T11:25:11.463Z,99.90
2022-12-08T11:26:21.996Z,99.90
2022-12-08T11:27:24.052Z,99.90
2022-12-08T11:28:27.221Z,99.90
2022-12-08T11:29:31.788Z,99.90
2022-12-08T11:30:39.797Z,99.90
2022-12-08T11:31:49.772Z,99.90
2022-12-08T11:32:58.010Z,99.90
2022-12-08T11:34:02.870Z,99.90
2022-12-08T11:35:07.620Z,99.90
2022-12-08T11:36:14.392Z,99.90
2022-12-08T11:37:21.822Z,99.90
2022-12-08T11:38:28.352Z,99.90
2022-12-08T11:39:35.438Z,99.90
2022-12-08T11:40:43.383Z,99.90
2022-12-08T11:41:48.368Z,99.90
2022-12-08T11:42:56.328Z,99.90
2022-12-08T11:44:05.660Z,99.90
2022-12-08T11:45:13.786Z,99.90
2022-12-08T11:46:21.962Z,99.90
2022-12-08T11:47:27.856Z,99.90
2022-12-08T11:48:36.311Z,99.90
2022-12-08T11:49:41.852Z,99.90
2022-12-08T11:50:48.177Z,99.90
2022-12-08T11:51:55.765Z,99.90
2022-12-08T11:53:00.829Z,99.90
2022-12-08T11:54:14.627Z,99.90
2022-12-08T11:55:36.951Z,99.90
2022-12-08T11:56:45.800Z,99.90
2022-12-08T11:57:51.134Z,99.90
2022-12-08T11:58:57.355Z,99.90
2022-12-08T12:00:02.775Z,99.90
2022-12-08T12:01:21.091Z,99.90
2022-12-08T12:02:27.579Z,99.90
2022-12-08T12:03:35.751Z,99.90
2022-12-08T12:04:43.730Z,99.90
2022-12-08T12:06:12.918Z,99.90
2022-12-08T12:07:52.858Z,99.90
2022-12-08T12:09:07.195Z,99.90
2022-12-08T12:10:48.890Z,99.90
2022-12-08T12:12:16.566Z,99.90
2022-12-08T12:13:40.186Z,99.90
2022-12-08T12:15:31.356Z,99.90
2022-12-08T12:16:51.478Z,99.90
2022-12-08T12:17:58.885Z,99.90
2022-12-08T12:19:05.576Z,99.90
2022-12-08T12:20:15.949Z,99.90
2022-12-08T12:21:22.791Z,99.90
2022-12-08T12:22:28.954Z,99.90
2022-12-08T12:23:38.129Z,99.90
2022-12-08T12:24:43.046Z,99.90
2022-12-08T12:25:51.963Z,99.90
2022-12-08T12:27:02.754Z,99.90
2022-12-08T12:28:07.772Z,99.90
2022-12-08T12:29:19.705Z,99.90
2022-12-08T12:30:24.777Z,99.90
2022-12-08T12:31:30.922Z,99.90
2022-12-08T12:32:44.817Z,99.90
2022-12-08T12:33:48.957Z,99.90
2022-12-08T12:34:54.226Z,99.90
2022-12-08T12:35:59.368Z,99.90
2022-12-08T12:37:10.181Z,99.90
2022-12-08T12:38:39.393Z,99.90
2022-12-08T12:39:51.255Z,99.90
2022-12-08T12:40:59.742Z,99.90
2022-12-08T12:42:04.244Z,99.90
2022-12-08T12:43:23.941Z,99.90
2022-12-08T12:44:43.210Z,99.90
2022-12-08T12:45:46.563Z,99.90
2022-12-08T12:47:01.416Z,99.90
2022-12-08T12:48:24.771Z,99.90
2022-12-08T12:49:50.928Z,99.90
2022-12-08T12:50:55.164Z,99.90
2022-12-08T12:51:57.252Z,99.90
2022-12-08T12:53:01.348Z,99.90
2022-12-08T12:54:21.886Z,99.90
2022-12-08T12:55:54.702Z,99.90
2022-12-08T12:57:15.698Z,99.90
2022-12-08T12:58:48.756Z,99.90
2022-12-08T13:00:08.387Z,99.90
2022-12-08T13:01:49.687Z,99.90
2022-12-08T13:02:54.022Z,99.90
2022-12-08T13:04:05.837Z,99.90
2022-12-08T13:05:15.821Z,99.90
2022-12-08T13:06:24.857Z,99.90
2022-12-08T13:07:31.000Z,99.90
2022-12-08T13:08:34.669Z,99.90
2022-12-08T13:09:41.485Z,99.90
2022-12-08T13:10:59.146Z,99.90
2022-12-08T13:12:10.454Z,99.90
2022-12-08T13:13:19.952Z,99.90
2022-12-08T13:14:34.546Z,99.90
2022-12-08T13:15:40.800Z,99.90
2022-12-08T13:16:42.933Z,99.90
2022-12-08T13:17:47.971Z,99.90
2022-12-08T13:18:52.410Z,99.90
2022-12-08T13:19:58.272Z,99.90
2022-12-08T13:21:05.696Z,99.90
2022-12-08T13:22:46.224Z,99.90
2022-12-08T13:23:50.852Z,99.90
2022-12-08T13:24:53.669Z,99.90
2022-12-08T13:26:27.490Z,99.90
2022-12-08T13:27:35.397Z,99.20
2022-12-08T13:29:20.426Z,97.90
2022-12-08T13:30:43.764Z,96.20
2022-12-08T13:31:51.273Z,94.30
2022-12-08T13:34:25.524Z,91.40
2022-12-08T13:35:28.317Z,89.10
2022-12-08T13:36:36.262Z,86.30
2022-12-08T13:37:54.596Z,84.80
2022-12-08T13:39:00.698Z,83.40
2022-12-08T13:40:11.633Z,81.00
2022-12-08T13:41:18.234Z,79.90
2022-12-08T13:42:25.955Z,79.70
2022-12-08T13:43:48.446Z,77.90
2022-12-08T13:45:24.257Z,77.00
2022-12-08T13:53:56.188Z,70.80
2022-12-08T13:57:10.230Z,66.50
2022-12-08T13:58:25.232Z,65.80
2022-12-08T13:59:31.519Z,65.60
2022-12-08T14:00:33.672Z,65.80
2022-12-08T14:01:45.725Z,66.20
2022-12-08T14:02:50.745Z,66.10
2022-12-08T14:05:40.567Z,65.60
2022-12-08T14:06:50.437Z,65.30
2022-12-08T14:07:56.107Z,64.90
2022-12-08T14:09:09.994Z,65.30
2022-12-08T14:10:19.712Z,64.40
2022-12-08T14:11:34.725Z,66.00
2022-12-08T14:12:38.289Z,67.90
2022-12-08T14:13:40.658Z,69.50
2022-12-08T14:15:02.639Z,70.30
2022-12-08T14:16:07.553Z,71.00
2022-12-08T14:17:13.540Z,71.90
2022-12-08T14:18:26.120Z,72.40
2022-12-08T14:19:29.990Z,73.20
2022-12-08T14:20:51.989Z,74.40
2022-12-08T14:21:59.677Z,75.60
2022-12-08T14:23:08.120Z,76.70
2022-12-08T14:24:12.360Z,77.80
2022-12-08T14:25:17.432Z,78.40
2022-12-08T14:26:19.508Z,78.70
2022-12-08T14:27:24.692Z,79.20